sensor_id;sensor_type;location;lat;lon;timestamp;P1;durP1;ratioP1;P2;durP2;ratioP2
6850;SDS011;3464;42.728;23.296;2023-06-22T00:02:20;17.00;;;10.90;;
6850;SDS011;3464;42.728;23.296;2023-06-22T00:04:47;20.60;;;11.57;;
6850;SDS011;3464;42.728;23.296;2023-06-22T00:07:13;18.97;;;10.70;;
6850;SDS011;3464;42.728;23.296;2023-06-22T00:09:40;19.40;;;11.37;;
6850;SDS011;3464;42.728;23.296;2023-06-22T00:12:07;17.67;;;10.90;;
6850;SDS011;3464;42.728;23.296;2023-06-22T00:14:34;17.40;;;9.97;;
6850;SDS011;3464;42.728;23.296;2023-06-22T00:17:01;18.77;;;11.80;;
6850;SDS011;3464;42.728;23.296;2023-06-22T00:19:27;17.73;;;11.03;;
6850;SDS011;3464;42.728;23.296;2023-06-22T00:21:54;19.43;;;11.00;;
6850;SDS011;3464;42.728;23.296;2023-06-22T00:24:20;16.53;;;10.33;;
6850;SDS011;3464;42.728;23.296;2023-06-22T00:26:48;22.33;;;11.53;;
6850;SDS011;3464;42.728;23.296;2023-06-22T00:29:15;20.30;;;11.23;;
6850;SDS011;3464;42.728;23.296;2023-06-22T00:31:41;17.30;;;10.63;;
6850;SDS011;3464;42.728;23.296;2023-06-22T00:34:08;22.00;;;11.43;;
6850;SDS011;3464;42.728;23.296;2023-06-22T00:36:35;20.30;;;11.90;;
6850;SDS011;3464;42.728;23.296;2023-06-22T00:39:02;20.27;;;11.50;;
6850;SDS011;3464;42.728;23.296;2023-06-22T00:41:28;20.30;;;11.57;;
6850;SDS011;3464;42.728;23.296;2023-06-22T00:43:55;20.13;;;11.70;;
6850;SDS011;3464;42.728;23.296;2023-06-22T00:46:22;19.20;;;11.90;;
6850;SDS011;3464;42.728;23.296;2023-06-22T00:48:48;22.73;;;12.30;;
6850;SDS011;3464;42.728;23.296;2023-06-22T00:51:14;18.77;;;11.47;;
6850;SDS011;3464;42.728;23.296;2023-06-22T00:53:42;20.10;;;12.90;;
6850;SDS011;3464;42.728;23.296;2023-06-22T00:56:09;18.07;;;11.53;;
6850;SDS011;3464;42.728;23.296;2023-06-22T00:58:36;23.40;;;12.73;;
6850;SDS011;3464;42.728;23.296;2023-06-22T01:01:02;22.30;;;11.90;;
6850;SDS011;3464;42.728;23.296;2023-06-22T01:03:28;21.80;;;12.60;;
6850;SDS011;3464;42.728;23.296;2023-06-22T01:05:57;22.40;;;12.33;;
6850;SDS011;3464;42.728;23.296;2023-06-22T01:11:01;31.50;;;12.93;;
6850;SDS011;3464;42.728;23.296;2023-06-22T01:13:29;18.60;;;11.93;;
6850;SDS011;3464;42.728;23.296;2023-06-22T01:16:10;20.40;;;11.63;;
6850;SDS011;3464;42.728;23.296;2023-06-22T01:18:46;24.70;;;11.10;;
6850;SDS011;3464;42.728;23.296;2023-06-22T01:21:14;16.93;;;10.43;;
6850;SDS011;3464;42.728;23.296;2023-06-22T01:23:44;16.90;;;10.13;;
6850;SDS011;3464;42.728;23.296;2023-06-22T01:26:28;20.17;;;10.50;;
6850;SDS011;3464;42.728;23.296;2023-06-22T01:28:53;17.80;;;10.03;;
6850;SDS011;3464;42.728;23.296;2023-06-22T01:31:18;19.50;;;10.90;;
6850;SDS011;3464;42.728;23.296;2023-06-22T01:33:47;23.50;;;10.80;;
6850;SDS011;3464;42.728;23.296;2023-06-22T01:36:13;17.93;;;10.80;;
6850;SDS011;3464;42.728;23.296;2023-06-22T01:38:39;19.80;;;9.70;;
6850;SDS011;3464;42.728;23.296;2023-06-22T01:41:06;17.70;;;9.77;;
6850;SDS011;3464;42.728;23.296;2023-06-22T01:43:32;17.77;;;10.83;;
6850;SDS011;3464;42.728;23.296;2023-06-22T01:46:00;17.43;;;10.13;;
6850;SDS011;3464;42.728;23.296;2023-06-22T01:48:25;17.80;;;10.40;;
6850;SDS011;3464;42.728;23.296;2023-06-22T01:50:52;17.67;;;10.30;;
6850;SDS011;3464;42.728;23.296;2023-06-22T01:53:20;21.83;;;9.70;;
6850;SDS011;3464;42.728;23.296;2023-06-22T01:55:48;18.30;;;10.60;;
6850;SDS011;3464;42.728;23.296;2023-06-22T01:58:15;19.50;;;10.37;;
6850;SDS011;3464;42.728;23.296;2023-06-22T02:00:47;17.97;;;10.93;;
6850;SDS011;3464;42.728;23.296;2023-06-22T02:03:13;26.47;;;12.17;;
6850;SDS011;3464;42.728;23.296;2023-06-22T02:05:39;18.20;;;10.27;;
6850;SDS011;3464;42.728;23.296;2023-06-22T02:08:08;18.17;;;10.80;;
6850;SDS011;3464;42.728;23.296;2023-06-22T02:10:35;23.10;;;11.10;;
6850;SDS011;3464;42.728;23.296;2023-06-22T02:13:04;18.10;;;11.13;;
6850;SDS011;3464;42.728;23.296;2023-06-22T02:15:28;17.53;;;10.43;;
6850;SDS011;3464;42.728;23.296;2023-06-22T02:17:55;18.60;;;10.60;;
6850;SDS011;3464;42.728;23.296;2023-06-22T02:20:22;19.40;;;11.57;;
6850;SDS011;3464;42.728;23.296;2023-06-22T02:22:48;19.47;;;11.80;;
6850;SDS011;3464;42.728;23.296;2023-06-22T02:25:15;20.70;;;11.47;;
6850;SDS011;3464;42.728;23.296;2023-06-22T02:27:42;19.30;;;11.37;;
6850;SDS011;3464;42.728;23.296;2023-06-22T02:30:09;20.70;;;11.63;;
6850;SDS011;3464;42.728;23.296;2023-06-22T02:32:36;22.00;;;10.90;;
6850;SDS011;3464;42.728;23.296;2023-06-22T02:35:02;22.37;;;11.20;;
6850;SDS011;3464;42.728;23.296;2023-06-22T02:37:30;19.00;;;11.77;;
6850;SDS011;3464;42.728;23.296;2023-06-22T02:39:56;26.10;;;12.50;;
6850;SDS011;3464;42.728;23.296;2023-06-22T02:42:23;20.43;;;11.17;;
6850;SDS011;3464;42.728;23.296;2023-06-22T02:44:49;21.63;;;11.10;;
6850;SDS011;3464;42.728;23.296;2023-06-22T02:47:16;20.70;;;11.87;;
6850;SDS011;3464;42.728;23.296;2023-06-22T02:49:42;20.10;;;11.30;;
6850;SDS011;3464;42.728;23.296;2023-06-22T02:52:09;19.07;;;12.40;;
6850;SDS011;3464;42.728;23.296;2023-06-22T02:54:35;21.53;;;11.87;;
6850;SDS011;3464;42.728;23.296;2023-06-22T02:57:04;23.60;;;11.10;;
6850;SDS011;3464;42.728;23.296;2023-06-22T02:59:31;19.87;;;11.43;;
6850;SDS011;3464;42.728;23.296;2023-06-22T03:01:57;17.60;;;11.00;;
6850;SDS011;3464;42.728;23.296;2023-06-22T03:04:24;21.43;;;11.53;;
6850;SDS011;3464;42.728;23.296;2023-06-22T03:06:50;24.13;;;12.17;;
6850;SDS011;3464;42.728;23.296;2023-06-22T03:09:18;21.63;;;12.37;;
6850;SDS011;3464;42.728;23.296;2023-06-22T03:11:47;21.33;;;11.20;;
6850;SDS011;3464;42.728;23.296;2023-06-22T03:14:14;20.50;;;10.63;;
6850;SDS011;3464;42.728;23.296;2023-06-22T03:16:41;19.93;;;11.60;;
6850;SDS011;3464;42.728;23.296;2023-06-22T03:19:07;19.27;;;11.10;;
6850;SDS011;3464;42.728;23.296;2023-06-22T03:21:34;18.70;;;10.80;;
6850;SDS011;3464;42.728;23.296;2023-06-22T03:24:01;22.63;;;11.50;;
6850;SDS011;3464;42.728;23.296;2023-06-22T03:26:28;18.30;;;10.73;;
6850;SDS011;3464;42.728;23.296;2023-06-22T03:28:54;20.90;;;10.80;;
6850;SDS011;3464;42.728;23.296;2023-06-22T03:31:21;21.33;;;10.60;;
6850;SDS011;3464;42.728;23.296;2023-06-22T03:33:48;18.20;;;9.90;;
6850;SDS011;3464;42.728;23.296;2023-06-22T03:36:16;17.67;;;9.90;;
6850;SDS011;3464;42.728;23.296;2023-06-22T03:38:45;17.60;;;9.47;;
6850;SDS011;3464;42.728;23.296;2023-06-22T03:41:13;18.53;;;9.30;;
6850;SDS011;3464;42.728;23.296;2023-06-22T03:43:41;17.00;;;9.17;;
6850;SDS011;3464;42.728;23.296;2023-06-22T03:46:08;16.07;;;8.23;;
6850;SDS011;3464;42.728;23.296;2023-06-22T03:48:34;15.60;;;8.10;;
6850;SDS011;3464;42.728;23.296;2023-06-22T03:51:01;19.87;;;8.80;;
6850;SDS011;3464;42.728;23.296;2023-06-22T03:53:28;14.13;;;8.10;;
6850;SDS011;3464;42.728;23.296;2023-06-22T03:55:55;17.33;;;8.47;;
6850;SDS011;3464;42.728;23.296;2023-06-22T03:58:21;16.07;;;8.27;;
6850;SDS011;3464;42.728;23.296;2023-06-22T04:00:48;18.43;;;8.73;;
6850;SDS011;3464;42.728;23.296;2023-06-22T04:03:14;16.50;;;8.90;;
6850;SDS011;3464;42.728;23.296;2023-06-22T04:05:41;21.93;;;9.20;;
6850;SDS011;3464;42.728;23.296;2023-06-22T04:08:08;17.80;;;8.57;;
6850;SDS011;3464;42.728;23.296;2023-06-22T04:10:35;18.00;;;8.10;;
6850;SDS011;3464;42.728;23.296;2023-06-22T04:13:03;16.90;;;8.70;;
6850;SDS011;3464;42.728;23.296;2023-06-22T04:15:29;18.23;;;8.90;;
6850;SDS011;3464;42.728;23.296;2023-06-22T04:17:56;15.80;;;8.90;;
6850;SDS011;3464;42.728;23.296;2023-06-22T04:20:23;17.30;;;9.17;;
6850;SDS011;3464;42.728;23.296;2023-06-22T04:22:53;49.47;;;14.90;;
6850;SDS011;3464;42.728;23.296;2023-06-22T04:25:19;18.40;;;9.13;;
6850;SDS011;3464;42.728;23.296;2023-06-22T04:27:46;17.80;;;8.97;;
6850;SDS011;3464;42.728;23.296;2023-06-22T04:30:12;15.20;;;8.77;;
6850;SDS011;3464;42.728;23.296;2023-06-22T04:32:39;17.13;;;8.10;;
6850;SDS011;3464;42.728;23.296;2023-06-22T04:35:06;18.27;;;9.53;;
6850;SDS011;3464;42.728;23.296;2023-06-22T04:37:33;20.60;;;9.50;;
6850;SDS011;3464;42.728;23.296;2023-06-22T04:39:59;16.23;;;8.57;;
6850;SDS011;3464;42.728;23.296;2023-06-22T04:42:25;19.03;;;8.30;;
6850;SDS011;3464;42.728;23.296;2023-06-22T04:44:52;15.47;;;8.23;;
6850;SDS011;3464;42.728;23.296;2023-06-22T04:47:18;15.20;;;8.47;;
6850;SDS011;3464;42.728;23.296;2023-06-22T04:49:45;17.00;;;8.53;;
6850;SDS011;3464;42.728;23.296;2023-06-22T04:52:13;17.10;;;8.00;;
6850;SDS011;3464;42.728;23.296;2023-06-22T04:54:39;16.80;;;8.80;;
6850;SDS011;3464;42.728;23.296;2023-06-22T04:57:05;21.97;;;8.33;;
6850;SDS011;3464;42.728;23.296;2023-06-22T04:59:34;20.83;;;8.87;;
6850;SDS011;3464;42.728;23.296;2023-06-22T05:02:01;25.57;;;9.43;;
6850;SDS011;3464;42.728;23.296;2023-06-22T05:04:29;25.50;;;9.50;;
6850;SDS011;3464;42.728;23.296;2023-06-22T05:06:59;20.00;;;8.80;;
6850;SDS011;3464;42.728;23.296;2023-06-22T05:09:25;17.33;;;7.90;;
6850;SDS011;3464;42.728;23.296;2023-06-22T05:11:51;22.40;;;8.77;;
6850;SDS011;3464;42.728;23.296;2023-06-22T05:14:18;25.20;;;9.10;;
6850;SDS011;3464;42.728;23.296;2023-06-22T05:16:45;18.23;;;8.43;;
6850;SDS011;3464;42.728;23.296;2023-06-22T05:19:11;22.67;;;9.43;;
6850;SDS011;3464;42.728;23.296;2023-06-22T05:21:38;21.80;;;9.10;;
6850;SDS011;3464;42.728;23.296;2023-06-22T05:24:05;26.87;;;9.40;;
6850;SDS011;3464;42.728;23.296;2023-06-22T05:26:32;16.17;;;8.77;;
6850;SDS011;3464;42.728;23.296;2023-06-22T05:29:00;18.20;;;9.33;;
6850;SDS011;3464;42.728;23.296;2023-06-22T05:31:27;21.93;;;8.60;;
6850;SDS011;3464;42.728;23.296;2023-06-22T05:33:56;17.47;;;8.37;;
6850;SDS011;3464;42.728;23.296;2023-06-22T05:36:22;19.83;;;9.60;;
6850;SDS011;3464;42.728;23.296;2023-06-22T05:38:50;23.47;;;8.40;;
6850;SDS011;3464;42.728;23.296;2023-06-22T05:41:16;18.70;;;7.53;;
6850;SDS011;3464;42.728;23.296;2023-06-22T05:43:45;24.30;;;7.00;;
6850;SDS011;3464;42.728;23.296;2023-06-22T05:46:11;20.80;;;7.90;;
6850;SDS011;3464;42.728;23.296;2023-06-22T05:48:38;14.73;;;7.40;;
6850;SDS011;3464;42.728;23.296;2023-06-22T05:51:05;20.50;;;7.83;;
6850;SDS011;3464;42.728;23.296;2023-06-22T05:53:31;19.80;;;7.80;;
6850;SDS011;3464;42.728;23.296;2023-06-22T05:55:59;17.00;;;7.90;;
6850;SDS011;3464;42.728;23.296;2023-06-22T05:58:26;21.03;;;8.20;;
6850;SDS011;3464;42.728;23.296;2023-06-22T06:00:53;18.63;;;7.27;;
6850;SDS011;3464;42.728;23.296;2023-06-22T06:03:20;20.00;;;7.50;;
6850;SDS011;3464;42.728;23.296;2023-06-22T06:05:48;19.30;;;7.20;;
6850;SDS011;3464;42.728;23.296;2023-06-22T06:08:15;21.77;;;8.03;;
6850;SDS011;3464;42.728;23.296;2023-06-22T06:10:43;15.50;;;7.20;;
6850;SDS011;3464;42.728;23.296;2023-06-22T06:13:10;22.37;;;7.77;;
6850;SDS011;3464;42.728;23.296;2023-06-22T06:15:37;27.73;;;12.67;;
6850;SDS011;3464;42.728;23.296;2023-06-22T06:18:04;20.00;;;8.97;;
6850;SDS011;3464;42.728;23.296;2023-06-22T06:20:30;18.57;;;8.13;;
6850;SDS011;3464;42.728;23.296;2023-06-22T06:22:57;25.23;;;9.20;;
6850;SDS011;3464;42.728;23.296;2023-06-22T06:25:23;15.63;;;8.70;;
6850;SDS011;3464;42.728;23.296;2023-06-22T06:27:50;17.80;;;8.40;;
6850;SDS011;3464;42.728;23.296;2023-06-22T06:30:19;20.97;;;9.10;;
6850;SDS011;3464;42.728;23.296;2023-06-22T06:32:49;22.43;;;8.33;;
6850;SDS011;3464;42.728;23.296;2023-06-22T06:35:21;19.70;;;8.53;;
6850;SDS011;3464;42.728;23.296;2023-06-22T06:37:51;16.53;;;7.90;;
6850;SDS011;3464;42.728;23.296;2023-06-22T06:40:21;20.80;;;7.90;;
6850;SDS011;3464;42.728;23.296;2023-06-22T06:42:59;14.20;;;7.90;;
6850;SDS011;3464;42.728;23.296;2023-06-22T06:45:28;21.97;;;8.20;;
6850;SDS011;3464;42.728;23.296;2023-06-22T06:47:55;26.43;;;8.20;;
6850;SDS011;3464;42.728;23.296;2023-06-22T06:50:23;17.60;;;8.20;;
6850;SDS011;3464;42.728;23.296;2023-06-22T06:52:50;19.70;;;7.80;;
6850;SDS011;3464;42.728;23.296;2023-06-22T06:55:18;20.53;;;8.30;;
6850;SDS011;3464;42.728;23.296;2023-06-22T06:57:48;17.97;;;7.87;;
6850;SDS011;3464;42.728;23.296;2023-06-22T07:00:15;18.83;;;7.50;;
6850;SDS011;3464;42.728;23.296;2023-06-22T07:02:43;18.80;;;8.23;;
6850;SDS011;3464;42.728;23.296;2023-06-22T07:05:10;21.83;;;7.73;;
6850;SDS011;3464;42.728;23.296;2023-06-22T07:07:37;14.63;;;7.40;;
6850;SDS011;3464;42.728;23.296;2023-06-22T07:10:04;17.40;;;7.53;;
6850;SDS011;3464;42.728;23.296;2023-06-22T07:12:33;16.33;;;7.53;;
6850;SDS011;3464;42.728;23.296;2023-06-22T07:15:02;20.33;;;7.70;;
6850;SDS011;3464;42.728;23.296;2023-06-22T07:17:31;16.33;;;7.13;;
6850;SDS011;3464;42.728;23.296;2023-06-22T07:19:58;17.07;;;7.27;;
6850;SDS011;3464;42.728;23.296;2023-06-22T07:22:27;21.13;;;7.83;;
6850;SDS011;3464;42.728;23.296;2023-06-22T07:24:55;17.70;;;7.03;;
6850;SDS011;3464;42.728;23.296;2023-06-22T07:27:22;18.27;;;7.60;;
6850;SDS011;3464;42.728;23.296;2023-06-22T07:29:49;15.87;;;7.10;;
6850;SDS011;3464;42.728;23.296;2023-06-22T07:32:19;20.33;;;7.87;;
6850;SDS011;3464;42.728;23.296;2023-06-22T07:34:46;15.83;;;7.30;;
6850;SDS011;3464;42.728;23.296;2023-06-22T07:39:55;15.90;;;7.70;;
6850;SDS011;3464;42.728;23.296;2023-06-22T07:42:24;16.60;;;7.93;;
6850;SDS011;3464;42.728;23.296;2023-06-22T07:44:51;16.95;;;8.02;;
6850;SDS011;3464;42.728;23.296;2023-06-22T07:47:17;16.73;;;7.30;;
6850;SDS011;3464;42.728;23.296;2023-06-22T07:49:46;20.07;;;8.50;;
6850;SDS011;3464;42.728;23.296;2023-06-22T07:52:13;16.43;;;8.07;;
6850;SDS011;3464;42.728;23.296;2023-06-22T07:54:41;23.07;;;8.00;;
6850;SDS011;3464;42.728;23.296;2023-06-22T07:57:07;16.37;;;7.60;;
6850;SDS011;3464;42.728;23.296;2023-06-22T07:59:34;24.50;;;8.33;;
6850;SDS011;3464;42.728;23.296;2023-06-22T08:02:00;18.30;;;8.50;;
6850;SDS011;3464;42.728;23.296;2023-06-22T08:04:27;17.93;;;7.83;;
6850;SDS011;3464;42.728;23.296;2023-06-22T08:06:54;15.13;;;7.07;;
6850;SDS011;3464;42.728;23.296;2023-06-22T08:09:20;13.60;;;6.80;;
6850;SDS011;3464;42.728;23.296;2023-06-22T08:11:47;17.30;;;7.37;;
6850;SDS011;3464;42.728;23.296;2023-06-22T08:14:14;17.03;;;6.87;;
6850;SDS011;3464;42.728;23.296;2023-06-22T08:16:42;15.50;;;7.10;;
6850;SDS011;3464;42.728;23.296;2023-06-22T08:19:09;16.53;;;7.27;;
6850;SDS011;3464;42.728;23.296;2023-06-22T08:21:38;18.27;;;7.60;;
6850;SDS011;3464;42.728;23.296;2023-06-22T08:24:05;16.33;;;7.33;;
6850;SDS011;3464;42.728;23.296;2023-06-22T08:26:32;17.27;;;7.43;;
6850;SDS011;3464;42.728;23.296;2023-06-22T08:28:59;15.17;;;7.23;;
6850;SDS011;3464;42.728;23.296;2023-06-22T08:31:29;12.70;;;7.00;;
6850;SDS011;3464;42.728;23.296;2023-06-22T08:34:03;18.50;;;7.47;;
6850;SDS011;3464;42.728;23.296;2023-06-22T08:36:31;14.00;;;6.93;;
6850;SDS011;3464;42.728;23.296;2023-06-22T08:38:58;15.03;;;8.23;;
6850;SDS011;3464;42.728;23.296;2023-06-22T08:41:25;15.33;;;8.30;;
6850;SDS011;3464;42.728;23.296;2023-06-22T08:43:52;15.67;;;8.70;;
6850;SDS011;3464;42.728;23.296;2023-06-22T08:46:18;16.23;;;9.00;;
6850;SDS011;3464;42.728;23.296;2023-06-22T08:48:45;14.20;;;8.50;;
6850;SDS011;3464;42.728;23.296;2023-06-22T08:51:12;18.23;;;8.40;;
6850;SDS011;3464;42.728;23.296;2023-06-22T08:53:39;17.23;;;8.93;;
6850;SDS011;3464;42.728;23.296;2023-06-22T08:56:06;19.90;;;9.10;;
6850;SDS011;3464;42.728;23.296;2023-06-22T08:58:32;19.50;;;8.60;;
6850;SDS011;3464;42.728;23.296;2023-06-22T09:01:00;14.50;;;8.10;;
6850;SDS011;3464;42.728;23.296;2023-06-22T09:03:26;15.00;;;8.83;;
6850;SDS011;3464;42.728;23.296;2023-06-22T09:05:53;15.97;;;8.83;;
6850;SDS011;3464;42.728;23.296;2023-06-22T09:08:21;15.90;;;8.83;;
6850;SDS011;3464;42.728;23.296;2023-06-22T09:10:48;18.07;;;9.20;;
6850;SDS011;3464;42.728;23.296;2023-06-22T09:13:16;17.33;;;9.70;;
6850;SDS011;3464;42.728;23.296;2023-06-22T09:15:43;19.67;;;9.67;;
6850;SDS011;3464;42.728;23.296;2023-06-22T09:18:13;19.07;;;9.90;;
6850;SDS011;3464;42.728;23.296;2023-06-22T09:20:41;18.27;;;10.20;;
6850;SDS011;3464;42.728;23.296;2023-06-22T09:23:08;15.63;;;9.27;;
6850;SDS011;3464;42.728;23.296;2023-06-22T09:25:36;19.40;;;9.70;;
6850;SDS011;3464;42.728;23.296;2023-06-22T09:28:03;18.27;;;10.00;;
6850;SDS011;3464;42.728;23.296;2023-06-22T09:30:29;15.20;;;8.70;;
6850;SDS011;3464;42.728;23.296;2023-06-22T09:32:56;15.23;;;9.23;;
6850;SDS011;3464;42.728;23.296;2023-06-22T09:35:23;15.40;;;8.77;;
6850;SDS011;3464;42.728;23.296;2023-06-22T09:37:50;17.00;;;9.00;;
6850;SDS011;3464;42.728;23.296;2023-06-22T09:40:17;16.77;;;8.50;;
6850;SDS011;3464;42.728;23.296;2023-06-22T09:42:43;17.93;;;8.73;;
6850;SDS011;3464;42.728;23.296;2023-06-22T09:45:10;18.53;;;8.33;;
6850;SDS011;3464;42.728;23.296;2023-06-22T09:47:36;16.83;;;8.30;;
6850;SDS011;3464;42.728;23.296;2023-06-22T09:50:04;17.60;;;8.53;;
6850;SDS011;3464;42.728;23.296;2023-06-22T09:52:31;18.20;;;8.80;;
6850;SDS011;3464;42.728;23.296;2023-06-22T09:54:59;16.47;;;8.60;;
6850;SDS011;3464;42.728;23.296;2023-06-22T09:57:26;18.03;;;8.60;;
6850;SDS011;3464;42.728;23.296;2023-06-22T09:59:59;15.80;;;8.10;;
6850;SDS011;3464;42.728;23.296;2023-06-22T10:02:27;14.73;;;8.20;;
6850;SDS011;3464;42.728;23.296;2023-06-22T10:04:58;14.20;;;7.87;;
6850;SDS011;3464;42.728;23.296;2023-06-22T10:07:25;15.60;;;8.00;;
6850;SDS011;3464;42.728;23.296;2023-06-22T10:09:52;15.40;;;8.37;;
6850;SDS011;3464;42.728;23.296;2023-06-22T10:12:21;14.03;;;8.07;;
6850;SDS011;3464;42.728;23.296;2023-06-22T10:14:50;14.43;;;8.53;;
6850;SDS011;3464;42.728;23.296;2023-06-22T10:17:17;16.43;;;8.83;;
6850;SDS011;3464;42.728;23.296;2023-06-22T10:19:47;21.37;;;9.10;;
6850;SDS011;3464;42.728;23.296;2023-06-22T10:22:15;15.27;;;8.60;;
6850;SDS011;3464;42.728;23.296;2023-06-22T10:24:41;17.20;;;8.03;;
6850;SDS011;3464;42.728;23.296;2023-06-22T10:27:10;17.30;;;8.97;;
6850;SDS011;3464;42.728;23.296;2023-06-22T10:29:37;16.60;;;9.07;;
6850;SDS011;3464;42.728;23.296;2023-06-22T10:32:04;15.00;;;8.80;;
6850;SDS011;3464;42.728;23.296;2023-06-22T10:34:32;14.87;;;8.60;;
6850;SDS011;3464;42.728;23.296;2023-06-22T10:36:59;14.50;;;8.60;;
6850;SDS011;3464;42.728;23.296;2023-06-22T10:39:25;17.57;;;8.30;;
6850;SDS011;3464;42.728;23.296;2023-06-22T10:41:54;18.30;;;8.60;;
6850;SDS011;3464;42.728;23.296;2023-06-22T10:44:22;19.20;;;9.70;;
6850;SDS011;3464;42.728;23.296;2023-06-22T10:46:49;15.70;;;8.00;;
6850;SDS011;3464;42.728;23.296;2023-06-22T10:49:17;14.20;;;8.37;;
6850;SDS011;3464;42.728;23.296;2023-06-22T10:51:46;14.43;;;8.53;;
6850;SDS011;3464;42.728;23.296;2023-06-22T10:54:14;15.37;;;8.00;;
6850;SDS011;3464;42.728;23.296;2023-06-22T10:56:43;14.93;;;8.57;;
6850;SDS011;3464;42.728;23.296;2023-06-22T10:59:11;17.13;;;8.73;;
6850;SDS011;3464;42.728;23.296;2023-06-22T11:01:39;15.17;;;8.33;;
6850;SDS011;3464;42.728;23.296;2023-06-22T11:04:07;16.40;;;8.77;;
6850;SDS011;3464;42.728;23.296;2023-06-22T11:06:35;19.17;;;9.33;;
6850;SDS011;3464;42.728;23.296;2023-06-22T11:09:02;17.30;;;8.33;;
6850;SDS011;3464;42.728;23.296;2023-06-22T11:11:28;14.60;;;7.60;;
6850;SDS011;3464;42.728;23.296;2023-06-22T11:13:55;14.50;;;7.97;;
6850;SDS011;3464;42.728;23.296;2023-06-22T11:16:22;17.60;;;8.00;;
6850;SDS011;3464;42.728;23.296;2023-06-22T11:18:49;13.90;;;7.93;;
6850;SDS011;3464;42.728;23.296;2023-06-22T11:21:17;17.03;;;7.27;;
6850;SDS011;3464;42.728;23.296;2023-06-22T11:23:44;17.63;;;8.00;;
6850;SDS011;3464;42.728;23.296;2023-06-22T11:26:11;16.33;;;7.87;;
6850;SDS011;3464;42.728;23.296;2023-06-22T11:28:37;13.43;;;7.20;;
6850;SDS011;3464;42.728;23.296;2023-06-22T11:31:04;18.00;;;7.33;;
6850;SDS011;3464;42.728;23.296;2023-06-22T11:33:31;15.87;;;8.23;;
6850;SDS011;3464;42.728;23.296;2023-06-22T11:35:57;14.60;;;7.77;;
6850;SDS011;3464;42.728;23.296;2023-06-22T11:38:24;12.93;;;6.70;;
6850;SDS011;3464;42.728;23.296;2023-06-22T11:40:51;17.07;;;7.63;;
6850;SDS011;3464;42.728;23.296;2023-06-22T11:43:17;18.00;;;7.43;;
6850;SDS011;3464;42.728;23.296;2023-06-22T11:45:44;17.13;;;7.33;;
6850;SDS011;3464;42.728;23.296;2023-06-22T11:48:11;15.37;;;7.30;;
6850;SDS011;3464;42.728;23.296;2023-06-22T11:50:39;13.80;;;7.20;;
6850;SDS011;3464;42.728;23.296;2023-06-22T11:53:08;14.67;;;7.13;;
6850;SDS011;3464;42.728;23.296;2023-06-22T11:55:35;19.90;;;7.33;;
6850;SDS011;3464;42.728;23.296;2023-06-22T11:58:02;22.77;;;8.87;;
6850;SDS011;3464;42.728;23.296;2023-06-22T12:00:29;17.13;;;9.03;;
6850;SDS011;3464;42.728;23.296;2023-06-22T12:02:56;14.73;;;8.30;;
6850;SDS011;3464;42.728;23.296;2023-06-22T12:05:24;15.17;;;8.53;;
6850;SDS011;3464;42.728;23.296;2023-06-22T12:07:53;17.00;;;8.70;;
6850;SDS011;3464;42.728;23.296;2023-06-22T12:10:20;17.43;;;9.00;;
6850;SDS011;3464;42.728;23.296;2023-06-22T12:12:48;16.90;;;8.30;;
6850;SDS011;3464;42.728;23.296;2023-06-22T12:15:14;15.77;;;8.90;;
6850;SDS011;3464;42.728;23.296;2023-06-22T12:17:41;15.50;;;8.37;;
6850;SDS011;3464;42.728;23.296;2023-06-22T12:20:08;19.27;;;8.90;;
6850;SDS011;3464;42.728;23.296;2023-06-22T12:22:35;14.63;;;7.83;;
6850;SDS011;3464;42.728;23.296;2023-06-22T12:25:05;23.27;;;10.67;;
6850;SDS011;3464;42.728;23.296;2023-06-22T12:27:32;20.57;;;11.27;;
6850;SDS011;3464;42.728;23.296;2023-06-22T12:29:58;19.33;;;9.47;;
6850;SDS011;3464;42.728;23.296;2023-06-22T12:32:25;22.37;;;9.03;;
6850;SDS011;3464;42.728;23.296;2023-06-22T12:34:52;17.17;;;8.10;;
6850;SDS011;3464;42.728;23.296;2023-06-22T12:37:18;19.87;;;8.23;;
6850;SDS011;3464;42.728;23.296;2023-06-22T12:39:45;22.77;;;7.70;;
6850;SDS011;3464;42.728;23.296;2023-06-22T12:42:11;20.70;;;7.47;;
6850;SDS011;3464;42.728;23.296;2023-06-22T12:44:39;17.33;;;7.47;;
6850;SDS011;3464;42.728;23.296;2023-06-22T12:47:05;21.73;;;8.10;;
6850;SDS011;3464;42.728;23.296;2023-06-22T12:49:32;17.30;;;6.80;;
6850;SDS011;3464;42.728;23.296;2023-06-22T12:51:58;20.47;;;7.50;;
6850;SDS011;3464;42.728;23.296;2023-06-22T12:54:25;15.40;;;6.40;;
6850;SDS011;3464;42.728;23.296;2023-06-22T12:56:51;16.00;;;6.60;;
6850;SDS011;3464;42.728;23.296;2023-06-22T12:59:18;15.03;;;6.13;;
6850;SDS011;3464;42.728;23.296;2023-06-22T13:01:45;15.80;;;6.40;;
6850;SDS011;3464;42.728;23.296;2023-06-22T13:04:12;19.40;;;6.43;;
6850;SDS011;3464;42.728;23.296;2023-06-22T13:06:40;16.60;;;6.30;;
6850;SDS011;3464;42.728;23.296;2023-06-22T13:09:07;15.00;;;6.07;;
6850;SDS011;3464;42.728;23.296;2023-06-22T13:11:34;14.20;;;6.20;;
6850;SDS011;3464;42.728;23.296;2023-06-22T13:14:00;14.10;;;6.10;;
6850;SDS011;3464;42.728;23.296;2023-06-22T13:16:28;17.03;;;6.47;;
6850;SDS011;3464;42.728;23.296;2023-06-22T13:18:54;16.40;;;5.83;;
6850;SDS011;3464;42.728;23.296;2023-06-22T13:21:21;20.20;;;7.20;;
6850;SDS011;3464;42.728;23.296;2023-06-22T13:23:48;17.67;;;6.40;;
6850;SDS011;3464;42.728;23.296;2023-06-22T13:26:15;14.27;;;6.60;;
6850;SDS011;3464;42.728;23.296;2023-06-22T13:28:42;16.43;;;7.17;;
6850;SDS011;3464;42.728;23.296;2023-06-22T13:31:08;20.97;;;7.20;;
6850;SDS011;3464;42.728;23.296;2023-06-22T13:33:35;18.73;;;7.30;;
6850;SDS011;3464;42.728;23.296;2023-06-22T13:36:02;15.97;;;7.43;;
6850;SDS011;3464;42.728;23.296;2023-06-22T13:38:29;17.80;;;7.67;;
6850;SDS011;3464;42.728;23.296;2023-06-22T13:40:56;19.80;;;8.00;;
6850;SDS011;3464;42.728;23.296;2023-06-22T13:43:22;19.30;;;8.77;;
6850;SDS011;3464;42.728;23.296;2023-06-22T13:45:49;21.27;;;8.90;;
6850;SDS011;3464;42.728;23.296;2023-06-22T13:48:17;22.97;;;8.53;;
6850;SDS011;3464;42.728;23.296;2023-06-22T13:50:45;19.00;;;7.73;;
6850;SDS011;3464;42.728;23.296;2023-06-22T13:53:11;21.27;;;9.00;;
6850;SDS011;3464;42.728;23.296;2023-06-22T13:59:16;17.63;;;9.00;;
6850;SDS011;3464;42.728;23.296;2023-06-22T14:01:42;22.37;;;9.50;;
6850;SDS011;3464;42.728;23.296;2023-06-22T14:04:09;20.40;;;9.10;;
6850;SDS011;3464;42.728;23.296;2023-06-22T14:06:35;21.53;;;9.40;;
6850;SDS011;3464;42.728;23.296;2023-06-22T14:09:02;17.90;;;8.57;;
6850;SDS011;3464;42.728;23.296;2023-06-22T14:11:28;18.80;;;9.23;;
6850;SDS011;3464;42.728;23.296;2023-06-22T14:13:55;17.93;;;8.57;;
6850;SDS011;3464;42.728;23.296;2023-06-22T14:16:21;17.10;;;8.67;;
6850;SDS011;3464;42.728;23.296;2023-06-22T14:18:48;18.60;;;9.37;;
6850;SDS011;3464;42.728;23.296;2023-06-22T14:21:14;19.27;;;8.03;;
6850;SDS011;3464;42.728;23.296;2023-06-22T14:23:41;21.27;;;8.40;;
6850;SDS011;3464;42.728;23.296;2023-06-22T14:26:08;21.27;;;8.67;;
6850;SDS011;3464;42.728;23.296;2023-06-22T14:28:34;18.80;;;8.50;;
6850;SDS011;3464;42.728;23.296;2023-06-22T14:31:01;18.50;;;8.37;;
6850;SDS011;3464;42.728;23.296;2023-06-22T14:33:27;19.57;;;8.53;;
6850;SDS011;3464;42.728;23.296;2023-06-22T14:35:54;19.70;;;9.00;;
6850;SDS011;3464;42.728;23.296;2023-06-22T14:38:20;17.57;;;8.23;;
6850;SDS011;3464;42.728;23.296;2023-06-22T14:40:47;19.73;;;8.10;;
6850;SDS011;3464;42.728;23.296;2023-06-22T14:43:13;20.23;;;8.20;;
6850;SDS011;3464;42.728;23.296;2023-06-22T14:45:40;15.83;;;8.00;;
6850;SDS011;3464;42.728;23.296;2023-06-22T14:48:06;18.20;;;8.13;;
6850;SDS011;3464;42.728;23.296;2023-06-22T14:50:33;19.10;;;7.60;;
6850;SDS011;3464;42.728;23.296;2023-06-22T14:52:59;19.90;;;8.67;;
6850;SDS011;3464;42.728;23.296;2023-06-22T14:55:26;21.77;;;9.60;;